Time;durP1;ratioP1;P1;durP2;ratioP2;P2;SDS_P1;SDS_P2;PMS_P1;PMS_P2;Temp;Humidity;BMP_temperature;BMP_pressure;BME280_temperature;BME280_humidity;BME280_pressure;Samples;Min_cycle;Max_cycle;Signal;HPM_P1;HPM_P2
2021/06/16 00:00:04;;;;;;;1.40;1.30;;;;;;;;;;5092783;28;20212;-87
2021/06/16 00:02:31;;;;;;;1.20;1.10;;;;;;;;;;5090083;28;20200;-87
2021/06/16 00:05:00;;;;;;;1.30;0.80;;;;;;;;;;5092683;28;20230;-87
2021/06/16 00:07:28;;;;;;;0.95;0.93;;;;;;;;;;5086717;28;20204;-86
2021/06/16 00:09:55;;;;;;;0.90;0.90;;;;;;;;;;5078861;28;20228;-85
2021/06/16 00:12:24;;;;;;;1.23;0.90;;;;;;;;;;5090994;28;20185;-86
2021/06/16 00:14:51;;;;;;;1.02;0.93;;;;;;;;;;5091684;28;20196;-86
2021/06/16 00:17:19;;;;;;;0.82;0.80;;;;;;;;;;5091745;28;20557;-87
2021/06/16 00:19:46;;;;;;;0.80;0.80;;;;;;;;;;5091789;28;20223;-86
2021/06/16 00:22:16;;;;;;;0.70;0.70;;;;;;;;;;5091955;28;20196;-86
2021/06/16 00:24:43;;;;;;;1.00;1.00;;;;;;;;;;5091859;28;20569;-86
2021/06/16 00:27:11;;;;;;;0.70;0.70;;;;;;;;;;5092203;28;20181;-86
2021/06/16 00:29:38;;;;;;;0.60;0.60;;;;;;;;;;5091949;28;20571;-87
2021/06/16 00:32:07;;;;;;;0.68;0.68;;;;;;;;;;5091711;28;20204;-87
2021/06/16 00:34:34;;;;;;;0.70;0.70;;;;;;;;;;5091894;28;20579;-87
2021/06/16 00:37:02;;;;;;;0.60;0.60;;;;;;;;;;5091375;28;20263;-87
2021/06/16 00:39:31;;;;;;;0.57;0.57;;;;;;;;;;5091623;28;20212;-88
2021/06/16 00:41:58;;;;;;;0.65;0.65;;;;;;;;;;5091693;28;20180;-87
2021/06/16 00:44:26;;;;;;;0.70;0.70;;;;;;;;;;5091510;28;20271;-86
2021/06/16 00:46:53;;;;;;;0.80;0.80;;;;;;;;;;5091606;28;20185;-86
2021/06/16 00:49:21;;;;;;;1.33;0.90;;;;;;;;;;5091113;28;20223;-87
2021/06/16 00:51:49;;;;;;;1.75;0.60;;;;;;;;;;5091166;28;20224;-87
2021/06/16 00:54:17;;;;;;;0.50;0.50;;;;;;;;;;5091370;28;20181;-86
2021/06/16 00:56:46;;;;;;;0.65;0.65;;;;;;;;;;5091360;28;20208;-86
2021/06/16 00:59:13;;;;;;;0.70;0.70;;;;;;;;;;5091361;28;20212;-86
2021/06/16 01:01:44;;;;;;;0.63;0.63;;;;;;;;;;5090513;28;20192;-86
2021/06/16 01:04:17;;;;;;;1.05;1.00;;;;;;;;;;5091604;28;20188;-86
2021/06/16 01:06:46;;;;;;;0.82;0.80;;;;;;;;;;5091062;28;20201;-86
2021/06/16 01:09:17;;;;;;;0.88;0.88;;;;;;;;;;5092086;28;20251;-86
2021/06/16 01:12:05;;;;;;;0.90;0.90;;;;;;;;;;5092253;28;20189;-86
2021/06/16 01:14:36;;;;;;;1.20;1.10;;;;;;;;;;5091843;28;20199;-86
2021/06/16 01:17:06;;;;;;;0.80;0.80;;;;;;;;;;5092342;28;20183;-85
2021/06/16 01:20:13;;;;;;;1.10;0.98;;;;;;;;;;5093635;28;20216;-86
2021/06/16 01:22:44;;;;;;;1.23;0.90;;;;;;;;;;5076160;28;20211;-87
2021/06/16 01:25:22;;;;;;;0.90;0.90;;;;;;;;;;5092633;28;20597;-85
2021/06/16 01:27:52;;;;;;;0.70;0.70;;;;;;;;;;5091887;28;20188;-85
2021/06/16 01:30:20;;;;;;;0.75;0.75;;;;;;;;;;5073948;28;20556;-87
2021/06/16 01:32:49;;;;;;;0.80;0.80;;;;;;;;;;5075427;28;20192;-85
2021/06/16 01:35:16;;;;;;;0.60;0.60;;;;;;;;;;5089640;28;20189;-86
2021/06/16 01:37:44;;;;;;;0.80;0.80;;;;;;;;;;5090173;28;20189;-86
2021/06/16 01:40:13;;;;;;;0.70;0.70;;;;;;;;;;5090246;28;20231;-85
2021/06/16 01:42:42;;;;;;;0.63;0.63;;;;;;;;;;5090587;28;20184;-85
2021/06/16 01:45:13;;;;;;;0.88;0.80;;;;;;;;;;5089698;28;20224;-86
2021/06/16 01:47:42;;;;;;;0.80;0.80;;;;;;;;;;5090421;28;20196;-86
2021/06/16 01:50:12;;;;;;;1.00;0.90;;;;;;;;;;5089372;28;20246;-85
2021/06/16 01:52:40;;;;;;;2.17;0.77;;;;;;;;;;5089442;28;20208;-85
2021/06/16 01:55:09;;;;;;;0.95;0.85;;;;;;;;;;5089963;28;20994;-86
2021/06/16 01:57:37;;;;;;;1.10;0.80;;;;;;;;;;5090431;28;20185;-86
2021/06/16 02:00:07;;;;;;;0.93;0.73;;;;;;;;;;5090335;28;20216;-86
2021/06/16 02:02:37;;;;;;;1.00;0.90;;;;;;;;;;5089788;28;20200;-84
2021/06/16 02:05:06;;;;;;;1.27;0.85;;;;;;;;;;5090117;28;20181;-87
2021/06/16 02:07:41;;;;;;;0.80;0.80;;;;;;;;;;5090841;28;20195;-86
2021/06/16 02:10:10;;;;;;;1.02;0.90;;;;;;;;;;5091284;28;20269;-86
2021/06/16 02:12:39;;;;;;;1.30;1.00;;;;;;;;;;5090612;28;20200;-86
2021/06/16 02:15:11;;;;;;;0.90;0.90;;;;;;;;;;5079373;28;20205;-85
2021/06/16 02:17:42;;;;;;;0.75;0.75;;;;;;;;;;5075615;28;20183;-86
2021/06/16 02:20:12;;;;;;;1.10;1.00;;;;;;;;;;5090642;28;20224;-86
2021/06/16 02:22:40;;;;;;;0.90;0.90;;;;;;;;;;5089283;28;20650;-84
2021/06/16 02:27:55;;;;;;;1.23;1.13;;;;;;;;;;4967951;28;20211;-86
2021/06/16 02:30:23;;;;;;;1.35;1.10;;;;;;;;;;5018409;28;20219;-86
2021/06/16 02:33:04;;;;;;;1.00;1.00;;;;;;;;;;5090201;28;20545;-87
2021/06/16 02:35:32;;;;;;;0.80;0.80;;;;;;;;;;5093709;28;20562;-86
2021/06/16 02:38:06;;;;;;;1.20;1.10;;;;;;;;;;5095267;28;20196;-86
2021/06/16 02:40:34;;;;;;;0.80;0.80;;;;;;;;;;5091008;28;20223;-86
2021/06/16 02:43:02;;;;;;;0.70;0.70;;;;;;;;;;5093369;28;20192;-86
2021/06/16 02:45:29;;;;;;;0.98;0.90;;;;;;;;;;5092973;28;20555;-86
2021/06/16 02:47:57;;;;;;;0.88;0.88;;;;;;;;;;5092263;28;20204;-86
2021/06/16 02:50:30;;;;;;;0.73;0.73;;;;;;;;;;5097853;28;20243;-86
2021/06/16 02:53:03;;;;;;;1.00;1.00;;;;;;;;;;5104608;28;20638;-86
2021/06/16 02:55:31;;;;;;;1.77;1.05;;;;;;;;;;5103667;28;20202;-86
2021/06/16 02:57:58;;;;;;;1.23;0.93;;;;;;;;;;5113772;28;20190;-85
2021/06/16 03:00:26;;;;;;;1.40;1.30;;;;;;;;;;5097465;28;20212;-86
2021/06/16 03:02:54;;;;;;;1.15;1.10;;;;;;;;;;5097446;28;20179;-86
2021/06/16 03:05:27;;;;;;;2.97;1.20;;;;;;;;;;5096842;28;20173;-86
2021/06/16 03:07:57;;;;;;;1.30;1.13;;;;;;;;;;5096084;28;20228;-86
2021/06/16 03:10:26;;;;;;;2.00;1.67;;;;;;;;;;5095621;28;20433;-86
2021/06/16 03:12:55;;;;;;;1.50;1.10;;;;;;;;;;5095875;28;20211;-86
2021/06/16 03:15:23;;;;;;;0.90;0.90;;;;;;;;;;5096276;28;20226;-86
2021/06/16 03:17:51;;;;;;;0.93;0.93;;;;;;;;;;5097247;28;20204;-86
2021/06/16 03:20:21;;;;;;;0.90;0.90;;;;;;;;;;5097322;28;20220;-86
2021/06/16 03:22:50;;;;;;;0.98;0.98;;;;;;;;;;5097013;28;20208;-86
2021/06/16 03:25:18;;;;;;;1.63;1.00;;;;;;;;;;5096606;28;20211;-87
2021/06/16 03:27:46;;;;;;;0.82;0.82;;;;;;;;;;5096981;28;20224;-87
2021/06/16 03:30:16;;;;;;;0.88;0.88;;;;;;;;;;5097292;28;20230;-87
2021/06/16 03:32:44;;;;;;;0.98;0.93;;;;;;;;;;5097770;28;20205;-87
2021/06/16 03:35:12;;;;;;;1.00;1.00;;;;;;;;;;5097804;28;20200;-87
2021/06/16 03:37:40;;;;;;;1.10;1.02;;;;;;;;;;5096993;28;20673;-87
2021/06/16 03:40:10;;;;;;;1.23;1.13;;;;;;;;;;5096879;28;20212;-87
2021/06/16 03:42:39;;;;;;;1.50;1.33;;;;;;;;;;5096839;28;20173;-86
2021/06/16 03:45:10;;;;;;;2.03;1.10;;;;;;;;;;5096992;28;20670;-86
2021/06/16 03:47:42;;;;;;;1.00;0.90;;;;;;;;;;5096009;28;20641;-86
2021/06/16 03:50:11;;;;;;;1.88;1.25;;;;;;;;;;5095953;28;20267;-87
2021/06/16 03:52:39;;;;;;;1.05;0.98;;;;;;;;;;5095954;28;20204;-87
2021/06/16 03:55:10;;;;;;;0.80;0.80;;;;;;;;;;5096642;28;20199;-87
2021/06/16 03:57:39;;;;;;;0.93;0.90;;;;;;;;;;5095846;28;20184;-87
2021/06/16 04:00:09;;;;;;;4.28;1.58;;;;;;;;;;5095811;28;20208;-87
2021/06/16 04:02:37;;;;;;;0.95;0.90;;;;;;;;;;5094987;28;20180;-87
2021/06/16 04:05:06;;;;;;;1.00;0.90;;;;;;;;;;5094631;28;20197;-87
2021/06/16 04:07:35;;;;;;;1.30;1.20;;;;;;;;;;5095466;28;20220;-87
2021/06/16 04:10:03;;;;;;;0.90;0.90;;;;;;;;;;5094771;28;20226;-87
2021/06/16 04:12:32;;;;;;;1.58;0.98;;;;;;;;;;5094804;28;20191;-87
2021/06/16 04:15:00;;;;;;;1.38;1.02;;;;;;;;;;5094337;28;20206;-87
2021/06/16 04:17:27;;;;;;;0.90;0.90;;;;;;;;;;5093877;28;20596;-87
2021/06/16 04:19:54;;;;;;;0.98;0.98;;;;;;;;;;5094071;28;20220;-87
2021/06/16 04:22:22;;;;;;;1.30;1.25;;;;;;;;;;5094180;28;20181;-86
2021/06/16 04:24:50;;;;;;;1.00;1.00;;;;;;;;;;5094793;28;20196;-86
2021/06/16 04:27:18;;;;;;;1.00;0.90;;;;;;;;;;5094405;28;20235;-86
2021/06/16 04:29:47;;;;;;;1.08;1.00;;;;;;;;;;5094725;28;20223;-86
2021/06/16 04:32:14;;;;;;;1.05;1.02;;;;;;;;;;5094641;28;20670;-87
2021/06/16 04:34:41;;;;;;;1.15;1.00;;;;;;;;;;5095667;28;20203;-86
2021/06/16 04:37:09;;;;;;;0.80;0.80;;;;;;;;;;5095621;28;20283;-86
2021/06/16 04:39:37;;;;;;;0.70;0.70;;;;;;;;;;5096627;28;20223;-86
2021/06/16 04:42:06;;;;;;;1.60;0.73;;;;;;;;;;5097118;28;20188;-86
2021/06/16 04:44:34;;;;;;;2.38;1.10;;;;;;;;;;5096045;28;20189;-87
2021/06/16 04:47:03;;;;;;;0.90;0.90;;;;;;;;;;5099768;28;20718;-86
2021/06/16 04:49:31;;;;;;;1.23;1.10;;;;;;;;;;5095943;28;20224;-86
2021/06/16 04:51:58;;;;;;;0.70;0.70;;;;;;;;;;5096178;28;20232;-86
2021/06/16 04:54:26;;;;;;;1.08;1.08;;;;;;;;;;5097070;28;20189;-87
2021/06/16 04:56:53;;;;;;;0.95;0.95;;;;;;;;;;5096234;28;20188;-86
2021/06/16 04:59:20;;;;;;;0.90;0.90;;;;;;;;;;5096408;28;20224;-86
2021/06/16 05:01:49;;;;;;;1.10;0.90;;;;;;;;;;5095986;28;20685;-87
2021/06/16 05:04:17;;;;;;;1.17;1.08;;;;;;;;;;5096865;28;20188;-86
2021/06/16 05:06:45;;;;;;;1.02;1.00;;;;;;;;;;5097348;28;20191;-87
2021/06/16 05:09:12;;;;;;;1.10;1.10;;;;;;;;;;5096203;28;20235;-87
2021/06/16 05:11:39;;;;;;;1.85;0.90;;;;;;;;;;5096513;28;20207;-86
2021/06/16 05:14:07;;;;;;;2.25;1.20;;;;;;;;;;5096794;28;20186;-87
2021/06/16 05:16:34;;;;;;;0.80;0.80;;;;;;;;;;5095473;28;20196;-87
2021/06/16 05:19:04;;;;;;;0.85;0.85;;;;;;;;;;5096859;28;20296;-87
2021/06/16 05:21:32;;;;;;;0.95;0.95;;;;;;;;;;5096905;28;20192;-86
2021/06/16 05:24:00;;;;;;;0.90;0.90;;;;;;;;;;5096934;28;20192;-86
2021/06/16 05:26:27;;;;;;;1.38;1.30;;;;;;;;;;5097504;28;20705;-86
2021/06/16 05:28:54;;;;;;;1.67;1.20;;;;;;;;;;5095990;28;20227;-87
2021/06/16 05:31:22;;;;;;;1.15;1.10;;;;;;;;;;5094397;28;20212;-86
2021/06/16 05:33:49;;;;;;;1.08;1.08;;;;;;;;;;5094772;28;20184;-86
2021/06/16 05:36:17;;;;;;;1.92;1.60;;;;;;;;;;5095892;28;20215;-87
2021/06/16 05:38:46;;;;;;;1.33;1.23;;;;;;;;;;5095741;28;20220;-87
2021/06/16 05:41:13;;;;;;;2.33;1.17;;;;;;;;;;5095454;28;20193;-87
2021/06/16 05:43:40;;;;;;;2.30;1.10;;;;;;;;;;5095019;28;20210;-87
2021/06/16 05:46:09;;;;;;;2.58;0.85;;;;;;;;;;5094099;28;20275;-88
2021/06/16 05:48:36;;;;;;;1.25;1.08;;;;;;;;;;5092901;28;20236;-88
2021/06/16 05:51:04;;;;;;;1.00;1.00;;;;;;;;;;5080747;28;20232;-87
2021/06/16 05:53:32;;;;;;;2.30;1.30;;;;;;;;;;5072261;28;20658;-87
2021/06/16 05:56:00;;;;;;;1.05;1.05;;;;;;;;;;5072155;28;20243;-87
2021/06/16 05:58:28;;;;;;;1.55;1.45;;;;;;;;;;5072724;28;20554;-87
2021/06/16 06:00:55;;;;;;;1.63;1.50;;;;;;;;;;5074091;28;20185;-87
2021/06/16 06:03:23;;;;;;;1.40;1.30;;;;;;;;;;5077856;28;20663;-87
2021/06/16 06:05:50;;;;;;;2.25;1.33;;;;;;;;;;5076027;28;20209;-87
2021/06/16 06:08:18;;;;;;;1.02;1.02;;;;;;;;;;5075696;28;20201;-87
2021/06/16 06:10:45;;;;;;;1.40;1.30;;;;;;;;;;5079500;28;20738;-87
2021/06/16 06:13:14;;;;;;;2.13;1.42;;;;;;;;;;5080241;28;20197;-87
2021/06/16 06:15:41;;;;;;;1.35;1.25;;;;;;;;;;5079752;28;20209;-87
2021/06/16 06:18:09;;;;;;;1.30;1.20;;;;;;;;;;5080363;28;20201;-87
2021/06/16 06:20:36;;;;;;;3.00;1.77;;;;;;;;;;5079984;28;20190;-86
2021/06/16 06:23:04;;;;;;;1.73;1.63;;;;;;;;;;5079819;28;20204;-87
2021/06/16 06:25:32;;;;;;;1.40;1.30;;;;;;;;;;5080416;28;20197;-87
2021/06/16 06:27:59;;;;;;;1.70;1.48;;;;;;;;;;5080526;28;20231;-86
2021/06/16 06:30:28;;;;;;;1.55;1.45;;;;;;;;;;5081102;28;20224;-87
2021/06/16 06:32:55;;;;;;;2.38;1.50;;;;;;;;;;5081945;28;20280;-87
2021/06/16 06:35:23;;;;;;;1.80;1.70;;;;;;;;;;5081414;28;20186;-86
2021/06/16 06:37:50;;;;;;;2.10;1.33;;;;;;;;;;5081950;28;20188;-86
2021/06/16 06:40:18;;;;;;;1.00;0.95;;;;;;;;;;5081212;28;20224;-87
2021/06/16 06:42:45;;;;;;;1.33;1.23;;;;;;;;;;5081112;28;20205;-86
2021/06/16 06:45:13;;;;;;;1.45;1.35;;;;;;;;;;5080932;28;20251;-87
2021/06/16 06:47:42;;;;;;;1.20;1.10;;;;;;;;;;5080916;28;20204;-87
2021/06/16 06:50:14;;;;;;;2.83;1.67;;;;;;;;;;5084135;28;20319;-86
2021/06/16 06:52:42;;;;;;;2.33;2.13;;;;;;;;;;5099951;28;20208;-87
2021/06/16 06:55:11;;;;;;;1.65;1.55;;;;;;;;;;5098787;28;20196;-87
2021/06/16 06:57:38;;;;;;;2.83;1.75;;;;;;;;;;5098398;28;20204;-87
2021/06/16 07:00:08;;;;;;;2.65;1.95;;;;;;;;;;5098869;28;20227;-87
2021/06/16 07:02:35;;;;;;;1.60;1.50;;;;;;;;;;5098853;28;20200;-87
2021/06/16 07:05:05;;;;;;;1.63;1.52;;;;;;;;;;5097707;28;20204;-87
2021/06/16 07:07:33;;;;;;;1.75;1.38;;;;;;;;;;5099803;28;20635;-87
2021/06/16 07:10:00;;;;;;;2.42;1.58;;;;;;;;;;5099932;28;20595;-87
2021/06/16 07:12:28;;;;;;;1.63;1.52;;;;;;;;;;5103797;28;20654;-87
2021/06/16 07:14:55;;;;;;;1.58;1.40;;;;;;;;;;5103343;28;20187;-87
2021/06/16 07:17:23;;;;;;;2.30;1.80;;;;;;;;;;5102174;28;20189;-86
2021/06/16 07:19:51;;;;;;;2.40;2.25;;;;;;;;;;5102077;28;20216;-86
2021/06/16 07:22:20;;;;;;;1.70;1.60;;;;;;;;;;5101498;28;20206;-87
2021/06/16 07:24:47;;;;;;;1.80;1.70;;;;;;;;;;5102729;28;20207;-86
2021/06/16 07:27:15;;;;;;;2.83;2.50;;;;;;;;;;5106152;28;20176;-86
2021/06/16 07:29:42;;;;;;;2.45;2.25;;;;;;;;;;5108686;28;20224;-87
2021/06/16 07:32:10;;;;;;;3.15;1.95;;;;;;;;;;5108069;28;20177;-86
2021/06/16 07:34:37;;;;;;;2.13;1.92;;;;;;;;;;5108285;28;20645;-86
2021/06/16 07:37:05;;;;;;;2.30;2.20;;;;;;;;;;5108097;28;20204;-87
2021/06/16 07:39:34;;;;;;;3.30;2.50;;;;;;;;;;5109726;28;20781;-87
2021/06/16 07:42:02;;;;;;;2.85;2.65;;;;;;;;;;5107241;28;20196;-86
2021/06/16 07:44:29;;;;;;;3.00;2.80;;;;;;;;;;5111104;28;20275;-86
2021/06/16 07:46:57;;;;;;;2.63;2.45;;;;;;;;;;5110422;28;20200;-86
2021/06/16 07:49:25;;;;;;;2.92;2.72;;;;;;;;;;5107060;28;20322;-87
2021/06/16 07:51:53;;;;;;;3.17;2.10;;;;;;;;;;5104124;28;20228;-86
2021/06/16 07:54:21;;;;;;;3.03;2.72;;;;;;;;;;5108782;28;20200;-86
2021/06/16 07:56:50;;;;;;;2.95;2.75;;;;;;;;;;5107555;28;20820;-86
2021/06/16 07:59:17;;;;;;;2.28;2.17;;;;;;;;;;5097826;28;20224;-86
2021/06/16 08:01:45;;;;;;;4.03;3.13;;;;;;;;;;5094891;28;20192;-86
2021/06/16 08:04:12;;;;;;;2.60;2.40;;;;;;;;;;5096092;28;20223;-87
2021/06/16 08:06:40;;;;;;;2.78;2.58;;;;;;;;;;5095697;28;20595;-87
2021/06/16 08:09:07;;;;;;;2.42;2.22;;;;;;;;;;5095342;28;20698;-87
2021/06/16 08:11:35;;;;;;;2.50;2.40;;;;;;;;;;5094660;28;20192;-86
2021/06/16 08:14:04;;;;;;;3.70;3.40;;;;;;;;;;5094653;28;20184;-86
2021/06/16 08:16:31;;;;;;;3.58;3.28;;;;;;;;;;5095047;28;20208;-86
2021/06/16 08:18:58;;;;;;;2.75;2.15;;;;;;;;;;5094853;28;20212;-86
2021/06/16 08:21:26;;;;;;;2.33;2.13;;;;;;;;;;5094853;28;20203;-87
2021/06/16 08:23:53;;;;;;;2.88;2.67;;;;;;;;;;5096628;28;20709;-87
2021/06/16 08:26:21;;;;;;;3.05;2.85;;;;;;;;;;5095555;28;20204;-87
2021/06/16 08:28:48;;;;;;;2.72;2.53;;;;;;;;;;5095248;28;20220;-87
2021/06/16 08:31:17;;;;;;;2.70;2.50;;;;;;;;;;5088804;28;20257;-86
2021/06/16 08:33:45;;;;;;;2.78;2.58;;;;;;;;;;5094733;28;20209;-86
2021/06/16 08:36:12;;;;;;;2.78;2.50;;;;;;;;;;5094173;28;20181;-86
2021/06/16 08:38:40;;;;;;;3.55;3.25;;;;;;;;;;5094557;28;20230;-87
2021/06/16 08:41:08;;;;;;;3.17;2.83;;;;;;;;;;5093915;28;20185;-86
2021/06/16 08:43:40;;;;;;;2.60;2.40;;;;;;;;;;5091575;28;20200;-86
2021/06/16 08:46:10;;;;;;;2.67;2.47;;;;;;;;;;5090991;28;20205;-87
2021/06/16 08:48:39;;;;;;;2.38;2.22;;;;;;;;;;5091631;28;20689;-86
2021/06/16 08:51:08;;;;;;;2.65;2.42;;;;;;;;;;5092474;28;20232;-86
2021/06/16 08:53:36;;;;;;;3.17;2.97;;;;;;;;;;5099422;28;20185;-86
2021/06/16 08:56:05;;;;;;;2.97;2.70;;;;;;;;;;5092673;28;20184;-86
2021/06/16 08:58:37;;;;;;;2.97;2.72;;;;;;;;;;5092348;28;20216;-86
2021/06/16 09:01:05;;;;;;;2.63;2.42;;;;;;;;;;5092480;28;20204;-86
2021/06/16 09:03:33;;;;;;;2.53;2.38;;;;;;;;;;5092191;28;20208;-86
2021/06/16 09:06:08;;;;;;;3.05;2.85;;;;;;;;;;5092275;28;20686;-86
2021/06/16 09:08:52;;;;;;;3.45;2.25;;;;;;;;;;5092319;28;20251;-86
2021/06/16 09:11:20;;;;;;;2.25;2.10;;;;;;;;;;5092534;28;20207;-86
2021/06/16 09:13:48;;;;;;;3.20;2.90;;;;;;;;;;5092330;28;20200;-86
2021/06/16 09:16:28;;;;;;;3.30;3.00;;;;;;;;;;5084130;28;20185;-86
2021/06/16 09:18:56;;;;;;;2.50;2.30;;;;;;;;;;5092207;28;20607;-86
2021/06/16 09:21:43;;;;;;;3.13;2.88;;;;;;;;;;5092403;28;20185;-86
2021/06/16 09:24:11;;;;;;;2.72;2.53;;;;;;;;;;5092498;28;20517;-86
2021/06/16 09:26:40;;;;;;;3.20;3.00;;;;;;;;;;5091553;28;20193;-86
2021/06/16 09:29:07;;;;;;;3.83;3.25;;;;;;;;;;5091328;28;20640;-86
2021/06/16 09:31:39;;;;;;;3.03;2.83;;;;;;;;;;5091288;28;20231;-86
2021/06/16 09:34:10;;;;;;;2.80;2.03;;;;;;;;;;5091148;28;20192;-86
2021/06/16 09:36:52;;;;;;;2.92;2.70;;;;;;;;;;5091613;28;20209;-86
2021/06/16 09:39:21;;;;;;;3.10;2.80;;;;;;;;;;5091305;28;20228;-86
2021/06/16 09:42:11;;;;;;;2.33;2.22;;;;;;;;;;5091675;28;20196;-86
2021/06/16 09:44:45;;;;;;;2.25;2.13;;;;;;;;;;5092282;28;20207;-86
2021/06/16 09:47:18;;;;;;;1.83;1.73;;;;;;;;;;5095079;28;20294;-86
2021/06/16 09:49:54;;;;;;;1.92;1.83;;;;;;;;;;5094819;28;20724;-86
2021/06/16 09:52:34;;;;;;;1.30;1.30;;;;;;;;;;5095624;28;20187;-86
2021/06/16 09:55:03;;;;;;;1.95;1.85;;;;;;;;;;5095310;28;20241;-86
2021/06/16 09:57:31;;;;;;;2.20;2.10;;;;;;;;;;5095120;28;20192;-86
2021/06/16 10:00:08;;;;;;;3.28;2.45;;;;;;;;;;5094821;28;20357;-86
2021/06/16 10:02:40;;;;;;;3.10;2.90;;;;;;;;;;5095212;28;20204;-86
2021/06/16 10:05:11;;;;;;;2.90;2.70;;;;;;;;;;5095153;28;20211;-86
2021/06/16 10:07:40;;;;;;;3.25;3.03;;;;;;;;;;5094621;28;20208;-86
2021/06/16 10:10:10;;;;;;;2.75;2.40;;;;;;;;;;5093881;28;20488;-86
2021/06/16 10:12:39;;;;;;;2.50;2.30;;;;;;;;;;5094806;28;20212;-87
2021/06/16 10:15:09;;;;;;;5.03;2.60;;;;;;;;;;5094301;28;20313;-86
2021/06/16 10:17:37;;;;;;;2.22;2.13;;;;;;;;;;5094171;28;20203;-87
2021/06/16 10:20:07;;;;;;;2.83;2.63;;;;;;;;;;5094073;28;20224;-86
2021/06/16 10:22:34;;;;;;;7.28;3.08;;;;;;;;;;5093494;28;20188;-86
2021/06/16 10:25:04;;;;;;;2.22;2.13;;;;;;;;;;5093952;28;20188;-86
2021/06/16 10:27:36;;;;;;;2.78;2.58;;;;;;;;;;5094135;28;20584;-86
2021/06/16 10:30:09;;;;;;;3.00;2.78;;;;;;;;;;5094091;28;20224;-86
2021/06/16 10:32:38;;;;;;;2.28;2.08;;;;;;;;;;5093996;28;20283;-86
2021/06/16 10:35:08;;;;;;;2.20;2.10;;;;;;;;;;5093831;28;20208;-86
2021/06/16 10:37:38;;;;;;;1.90;1.80;;;;;;;;;;5093394;28;20200;-86
2021/06/16 10:40:31;;;;;;;1.70;1.60;;;;;;;;;;5093405;28;20230;-86
2021/06/16 10:43:28;;;;;;;2.80;2.60;;;;;;;;;;5093703;28;20188;-86
2021/06/16 10:46:08;;;;;;;2.08;1.98;;;;;;;;;;5093455;28;20211;-87
2021/06/16 10:49:07;;;;;;;2.50;2.30;;;;;;;;;;5093009;28;20220;-86
2021/06/16 10:51:43;;;;;;;2.40;2.20;;;;;;;;;;5093343;28;20232;-87
2021/06/16 10:54:31;;;;;;;2.22;1.80;;;;;;;;;;5094031;28;20196;-86
2021/06/16 10:57:10;;;;;;;2.50;2.33;;;;;;;;;;5093153;28;20580;-86
2021/06/16 11:00:15;;;;;;;2.42;2.22;;;;;;;;;;5093290;28;20222;-86
2021/06/16 11:03:05;;;;;;;3.20;2.90;;;;;;;;;;5093224;28;20206;-86
2021/06/16 11:05:44;;;;;;;2.78;2.55;;;;;;;;;;5092707;28;20200;-86
2021/06/16 11:08:53;;;;;;;2.50;2.30;;;;;;;;;;5092890;28;20188;-87
2021/06/16 11:11:21;;;;;;;2.20;2.10;;;;;;;;;;5082395;28;20228;-87
2021/06/16 11:13:50;;;;;;;2.53;2.42;;;;;;;;;;5093022;28;20215;-87
2021/06/16 11:16:45;;;;;;;2.40;2.30;;;;;;;;;;5092851;28;20223;-86
2021/06/16 11:19:44;;;;;;;2.33;2.20;;;;;;;;;;5092717;28;20224;-87
2021/06/16 11:22:41;;;;;;;2.10;2.00;;;;;;;;;;5072740;28;20239;-87
2021/06/16 11:25:27;;;;;;;2.92;2.28;;;;;;;;;;5092473;28;20196;-86
2021/06/16 11:28:06;;;;;;;2.25;2.15;;;;;;;;;;5092710;28;20214;-86
2021/06/16 11:30:38;;;;;;;2.08;1.98;;;;;;;;;;5092056;28;20212;-87
2021/06/16 11:33:34;;;;;;;2.55;2.45;;;;;;;;;;5092262;28;20259;-87
2021/06/16 11:36:12;;;;;;;2.22;2.10;;;;;;;;;;5090482;28;20190;-87
2021/06/16 11:38:42;;;;;;;2.33;2.22;;;;;;;;;;5082884;28;20295;-87
2021/06/16 11:41:17;;;;;;;2.17;2.08;;;;;;;;;;5092993;28;20184;-87
2021/06/16 11:43:47;;;;;;;1.67;1.58;;;;;;;;;;5076200;28;20202;-87
2021/06/16 11:46:25;;;;;;;1.70;1.60;;;;;;;;;;5080599;28;20184;-87
2021/06/16 11:49:02;;;;;;;1.70;1.60;;;;;;;;;;5101149;28;20223;-88
2021/06/16 11:51:35;;;;;;;1.92;1.83;;;;;;;;;;5100454;28;20704;-87
2021/06/16 11:54:19;;;;;;;2.30;2.20;;;;;;;;;;5092451;28;20188;-87
2021/06/16 11:56:49;;;;;;;2.22;2.13;;;;;;;;;;5093100;28;20187;-87
2021/06/16 11:59:24;;;;;;;2.33;2.22;;;;;;;;;;5093049;28;20219;-86
2021/06/16 12:02:04;;;;;;;1.63;1.52;;;;;;;;;;5092030;28;20198;-87
2021/06/16 12:04:45;;;;;;;1.85;1.75;;;;;;;;;;5076606;28;20180;-87
2021/06/16 12:07:12;;;;;;;1.63;1.52;;;;;;;;;;5091770;28;20677;-87
2021/06/16 12:09:46;;;;;;;1.17;1.17;;;;;;;;;;5092544;28;20223;-87
2021/06/16 12:12:14;;;;;;;1.88;1.77;;;;;;;;;;5093008;28;20212;-87
2021/06/16 12:14:42;;;;;;;2.20;2.10;;;;;;;;;;5093041;28;20271;-87
2021/06/16 12:17:10;;;;;;;2.50;2.40;;;;;;;;;;5091817;28;20184;-87
2021/06/16 12:19:40;;;;;;;2.40;2.20;;;;;;;;;;5091271;28;20230;-87
2021/06/16 12:22:09;;;;;;;1.85;1.75;;;;;;;;;;5090296;28;20662;-88
2021/06/16 12:24:39;;;;;;;1.65;1.55;;;;;;;;;;5090976;28;20635;-87
2021/06/16 12:27:11;;;;;;;1.90;1.80;;;;;;;;;;5091650;28;20204;-86
2021/06/16 12:29:47;;;;;;;1.95;1.85;;;;;;;;;;5091603;28;20218;-88
2021/06/16 12:32:28;;;;;;;2.13;2.03;;;;;;;;;;5091106;28;20214;-87
2021/06/16 12:35:12;;;;;;;1.80;1.70;;;;;;;;;;5077029;28;20216;-87
2021/06/16 12:37:51;;;;;;;2.22;1.50;;;;;;;;;;5090871;28;20195;-88
2021/06/16 12:40:20;;;;;;;1.65;1.55;;;;;;;;;;5090087;28;20212;-88
2021/06/16 12:42:49;;;;;;;1.77;1.67;;;;;;;;;;5090083;28;20204;-87
2021/06/16 12:45:38;;;;;;;1.92;1.83;;;;;;;;;;5092454;28;20271;-87
2021/06/16 12:48:26;;;;;;;1.90;1.80;;;;;;;;;;5096474;28;20195;-87
2021/06/16 12:50:59;;;;;;;1.75;1.65;;;;;;;;;;5076606;28;20224;-87
2021/06/16 12:53:28;;;;;;;1.80;1.70;;;;;;;;;;5091439;28;20708;-87
2021/06/16 12:56:01;;;;;;;1.88;1.77;;;;;;;;;;5070956;28;20673;-87
2021/06/16 12:58:29;;;;;;;2.25;2.15;;;;;;;;;;5091973;28;20196;-87
2021/06/16 13:00:58;;;;;;;1.80;1.70;;;;;;;;;;5092168;28;20190;-87
2021/06/16 13:03:30;;;;;;;2.40;2.20;;;;;;;;;;5091941;28;20181;-86
2021/06/16 13:06:00;;;;;;;1.60;1.50;;;;;;;;;;5092032;28;20184;-86
2021/06/16 13:08:36;;;;;;;1.52;1.50;;;;;;;;;;5091769;28;20192;-86
2021/06/16 13:11:23;;;;;;;1.77;1.67;;;;;;;;;;5092133;28;20188;-87
2021/06/16 13:14:16;;;;;;;1.90;1.80;;;;;;;;;;5091357;28;20215;-86
2021/06/16 13:16:44;;;;;;;1.80;1.70;;;;;;;;;;5091416;28;20274;-87
2021/06/16 13:19:14;;;;;;;1.80;1.70;;;;;;;;;;5091210;28;20226;-86
2021/06/16 13:21:58;;;;;;;2.67;2.47;;;;;;;;;;5091194;28;20648;-87
2021/06/16 13:24:27;;;;;;;2.25;2.15;;;;;;;;;;5091707;28;20549;-86
2021/06/16 13:27:03;;;;;;;2.42;2.22;;;;;;;;;;5090531;28;20230;-87
2021/06/16 13:29:31;;;;;;;2.25;2.15;;;;;;;;;;5078627;28;20595;-87
2021/06/16 13:31:59;;;;;;;2.28;2.17;;;;;;;;;;5075836;28;20200;-87
2021/06/16 13:34:28;;;;;;;2.30;2.20;;;;;;;;;;5075836;28;20188;-87
2021/06/16 13:36:55;;;;;;;1.80;1.70;;;;;;;;;;5091016;28;20192;-87
2021/06/16 13:39:24;;;;;;;1.80;1.70;;;;;;;;;;5090265;28;20215;-87
2021/06/16 13:41:59;;;;;;;2.05;1.88;;;;;;;;;;5090215;28;20172;-86
2021/06/16 13:44:27;;;;;;;2.03;1.92;;;;;;;;;;5090388;28;20237;-86
2021/06/16 13:46:56;;;;;;;1.70;1.60;;;;;;;;;;5090362;28;20210;-87
2021/06/16 13:49:24;;;;;;;2.00;1.90;;;;;;;;;;5090848;28;20568;-86
2021/06/16 13:51:52;;;;;;;2.33;2.22;;;;;;;;;;5090856;28;20216;-87
2021/06/16 13:54:21;;;;;;;2.75;2.58;;;;;;;;;;5091029;28;20211;-88
2021/06/16 13:56:48;;;;;;;3.00;2.72;;;;;;;;;;5090906;28;20203;-87
2021/06/16 13:59:16;;;;;;;2.97;2.67;;;;;;;;;;5080339;28;20221;-86
2021/06/16 14:01:45;;;;;;;3.25;3.05;;;;;;;;;;5085813;28;20203;-87
2021/06/16 14:04:16;;;;;;;3.55;3.22;;;;;;;;;;5088927;28;20705;-86
2021/06/16 14:06:45;;;;;;;2.67;2.47;;;;;;;;;;5089552;28;20235;-86
2021/06/16 14:09:14;;;;;;;3.80;3.33;;;;;;;;;;5088855;28;20212;-87
2021/06/16 14:11:42;;;;;;;3.42;3.15;;;;;;;;;;5089634;28;20803;-86
2021/06/16 14:14:09;;;;;;;2.65;2.53;;;;;;;;;;5088843;28;20249;-87
2021/06/16 14:16:37;;;;;;;1.75;1.65;;;;;;;;;;5089262;28;20184;-87
2021/06/16 14:19:04;;;;;;;2.28;2.17;;;;;;;;;;5088985;28;20224;-87
2021/06/16 14:21:32;;;;;;;2.42;2.25;;;;;;;;;;5090300;28;20279;-87
2021/06/16 14:23:59;;;;;;;2.53;2.33;;;;;;;;;;5090432;28;20189;-86
2021/06/16 14:26:28;;;;;;;1.98;1.88;;;;;;;;;;5089315;28;20666;-87
2021/06/16 14:28:55;;;;;;;2.35;2.15;;;;;;;;;;5090629;28;20227;-86
2021/06/16 14:31:23;;;;;;;2.22;2.00;;;;;;;;;;5092385;28;20207;-87
2021/06/16 14:33:50;;;;;;;2.08;1.98;;;;;;;;;;5093888;28;20227;-87
2021/06/16 14:36:18;;;;;;;1.92;1.83;;;;;;;;;;5094115;28;20199;-86
2021/06/16 14:38:46;;;;;;;2.65;2.20;;;;;;;;;;5093895;28;20220;-87
2021/06/16 14:41:13;;;;;;;2.40;2.20;;;;;;;;;;5093497;28;20184;-87
2021/06/16 14:43:42;;;;;;;2.20;2.10;;;;;;;;;;5093977;28;20579;-86
2021/06/16 14:46:09;;;;;;;2.88;2.67;;;;;;;;;;5094234;28;20203;-86
2021/06/16 14:48:37;;;;;;;2.90;2.70;;;;;;;;;;5093614;28;20223;-86
2021/06/16 14:51:04;;;;;;;2.35;2.20;;;;;;;;;;5095408;28;20232;-86
2021/06/16 14:53:32;;;;;;;2.30;2.20;;;;;;;;;;5095233;28;20618;-86
2021/06/16 14:56:02;;;;;;;1.80;1.70;;;;;;;;;;5095980;28;20214;-86
2021/06/16 14:58:29;;;;;;;2.30;2.20;;;;;;;;;;5095023;28;20200;-87
2021/06/16 15:00:58;;;;;;;2.53;2.33;;;;;;;;;;5096182;28;20649;-86
2021/06/16 15:03:26;;;;;;;2.60;2.50;;;;;;;;;;5095709;28;20180;-86
2021/06/16 15:05:53;;;;;;;2.08;1.98;;;;;;;;;;5095532;28;20643;-86